Terminal Aerodrome Forecast
Issued by NWS Melbourne, FL

Home | Current Version | Previous Version | Text Only | Print | Product List | Glossary On
Versions: 1 2 3 4 5 6 7 8 9 10 11 12 13
000
FTUS42 KMLB 310500
TAFVRB
TAF
KVRB 310538Z 3106/0106 25003KT P6SM VCSH SCT035 BKN100
      TEMPO 3109/3112 BKN030 BKN060
     FM311400 31007KT P6SM SCT035 SCT250
      AMD LTD TO CLD VIS AND WIND TIL 311100=

USA.gov is the U.S. government's official web portal to all federal, state and local government web resources and services.